Al Rekayyat — V7QF3 — position and weather

sailwx.info

Track history (hours):
 
Tides and Currents Weather Stations Pressure Air Temp Water Temp Dewpoint Dewpoint Depression Visibility Wind Speed Wind Dir Waves Ship Positions

Al Rekayyat

Last reported at 2016-May-12 16:32 UTC. Time now 2016-May-29 05:48 UTC.
Position N 02°03' E 102°10'.
Warning: this ship's position is 16 days out of date.

Length 315 m; draft 9.4 m.

Type: Ship (hazmat cat D). MMSI: 538003347.

Date/timePositionNaut miles runAvg speedWind from/ knotsBaromVisibWave heightAir tempDewpointWater temp
2016-May-12 16:32N 02°03' E 102°10'1514.7
2016-May-12 15:32N 01°53' E 102°22'1515.2
2016-May-12 14:33N 01°47' E 102°35'7114.1
2016-May-12 09:32N 01°12' E 103°37'4 3.8
2016-May-12 08:29N 01°14' E 103°40'0 0.0
2016-May-12 07:31N 01°14' E 103°40'0 0.0
2016-May-12 02:13N 01°14' E 103°40'0 0.0
2016-May-11 07:22N 01°14' E 103°40'0 0.0
2016-May-11 03:07N 01°14' E 103°40'0 0.7
2016-May-11 02:22N 01°14' E 103°40'2 2.0
2016-May-11 01:25N 01°12' E 103°40'0 0.0
2016-May-11 00:26N 01°12' E 103°40'0 0.0
2016-May-10 23:32N 01°12' E 103°40'0 0.0
2016-May-10 22:33N 01°12' E 103°40'0 0.1
2016-May-10 21:22N 01°12' E 103°40'0 0.1
2016-May-10 20:25N 01°12' E 103°40'0 0.1
2016-May-10 19:23N 01°12' E 103°40'0 0.2
2016-May-10 18:20N 01°12' E 103°40'0 0.1
2016-May-10 17:15N 01°12' E 103°40'0 0.0
2016-May-10 16:33N 01°12' E 103°40'0 0.3
2016-May-10 15:33N 01°12' E 103°40'4 3.5
2016-May-10 14:33N 01°13' E 103°36'5 5.3
2016-May-10 13:33N 01°12' E 103°31'2 1.7
2016-May-10 12:33N 01°11' E 103°30'6212.1
2016-May-10 07:27N 01°43' E 102°37'1313.9
2016-May-10 06:31N 01°49' E 102°26'  
Track history (hours):
 
Tides and Currents Weather Stations Pressure Air Temp Water Temp Dewpoint Dewpoint Depression Visibility Wind Speed Wind Dir Waves Ship Positions

Al Rekayyat

Last reported at 2016-May-12 16:32 UTC. Time now 2016-May-29 05:48 UTC.
Position N 02°03' E 102°10'.
Warning: this ship's position is 16 days out of date.

Length 315 m; draft 9.4 m.

Type: Ship (hazmat cat D). MMSI: 538003347.

Date/timePositionNaut miles runAvg speedWind from/ knotsBaromVisibWave heightAir tempDewpointWater temp
2016-May-12 16:32N 02°03' E 102°10'1514.7
2016-May-12 15:32N 01°53' E 102°22'1515.2
2016-May-12 14:33N 01°47' E 102°35'7114.1
2016-May-12 09:32N 01°12' E 103°37'4 3.8
2016-May-12 08:29N 01°14' E 103°40'0 0.0
2016-May-12 07:31N 01°14' E 103°40'0 0.0
2016-May-12 02:13N 01°14' E 103°40'0 0.0
2016-May-11 07:22N 01°14' E 103°40'0 0.0
2016-May-11 03:07N 01°14' E 103°40'0 0.7
2016-May-11 02:22N 01°14' E 103°40'2 2.0
2016-May-11 01:25N 01°12' E 103°40'0 0.0
2016-May-11 00:26N 01°12' E 103°40'0 0.0
2016-May-10 23:32N 01°12' E 103°40'0 0.0
2016-May-10 22:33N 01°12' E 103°40'0 0.1
2016-May-10 21:22N 01°12' E 103°40'0 0.1
2016-May-10 20:25N 01°12' E 103°40'0 0.1
2016-May-10 19:23N 01°12' E 103°40'0 0.2
2016-May-10 18:20N 01°12' E 103°40'0 0.1
2016-May-10 17:15N 01°12' E 103°40'0 0.0
2016-May-10 16:33N 01°12' E 103°40'0 0.3
2016-May-10 15:33N 01°12' E 103°40'4 3.5
2016-May-10 14:33N 01°13' E 103°36'5 5.3
2016-May-10 13:33N 01°12' E 103°31'2 1.7
2016-May-10 12:33N 01°11' E 103°30'6212.1
2016-May-10 07:27N 01°43' E 102°37'1313.9
2016-May-10 06:31N 01°49' E 102°26'  

Dump ship's entire track history